Frazier Park, CA (93225)

8:41 PM PST on December 26, 2014 (GMT -0800)
Pinon Pines | Change Station
CLOSE
Current Station
Personal Weather Station
Location: Frazier Park, CA
Elevation: 5482 ft
Nearby Weather Stations

Elev 5482 ft 34.83 °N, 119.05 °W | Updated 3 minutes ago

Clear
Clear
17.8 °F
Feels Like 18 °F
N
0.0
Wind Variable Wind from SSW

Today
High -- | Low -- °F
--% Chance of Precip.
Yesterday
High -- | Low -- °F
Precip. -- in
7:02 AM 4:51 PM
Waxing Crescent, 32% visible
Pressure 30.17 in
Visibility 10.0 miles
Clouds Clear
Windchill 18 °F
Dew Point 12 °F
Humidity 77%
Rainfall 0.00 in
Snow Depth Not available.
UV 0 out of 12
Pollen 4.60 out of 12
Air Quality Not available.
Flu Activity Not available.
METAR KSDB 270348Z AUTO 05009KT 10SM CLR 01/M11 A3015 RMK AO2 SLP214 T00061111 $

More Conditions Fewer Conditions

Pressure 30.17 in
Visibility 10.0 miles
Clouds Clear
Windchill 18 °F
Dew Point 12 °F
Humidity 77%
Rainfall 0.00 in
Snow Depth Not available.
UV 0 out of 12
Pollen 4.60 out of 12
Air Quality Not available.
Flu Activity Not available.
METAR KSDB 270348Z AUTO 05009KT 10SM CLR 01/M11 A3015 RMK AO2 SLP214 T00061111 $

More Conditions Fewer Conditions

10-Day Weather Forecast

Almanac

Astronomy

Dec. 26, 2014 Rise Set
Actual Time
Civil Twilight
Nautical Twilight
Astronomical Twilight
Moon
Length of Visible Light
Length of Day
Tomorrow will be .
, % of the Moon is Illuminated

Today's Extremes

State Highs State Lows

Community

WunderPhotos

Upload Photos

1,780,847 photos uploaded!

WunderBlogs® & News

Nearby

Air Quality

  Air Quality AQ Index Pollutant
Not available.

Snow Depth

Station Depth Elevation

Earthquake Activity

City Distance Mag. Time & Date
Minimum magnitude displayed is 2.5.

Coastal Water Temperatures

Place Temperature

Nearby Weather Stations